sensor_id;sensor_type;location;lat;lon;timestamp;pressure;altitude;pressure_sealevel;temperature;humidity
40982;BME280;26708;50.304;19.028;2023-11-19T00:00:17;98830.41;;;4.24;58.02
40982;BME280;26708;50.304;19.028;2023-11-19T00:02:27;98838.25;;;4.27;57.99
40982;BME280;26708;50.304;19.028;2023-11-19T00:04:36;98837.47;;;4.29;57.85
40982;BME280;26708;50.304;19.028;2023-11-19T00:06:39;98806.88;;;4.16;58.09
40982;BME280;26708;50.304;19.028;2023-11-19T00:08:43;98832.44;;;4.35;58.00
40982;BME280;26708;50.304;19.028;2023-11-19T00:10:50;98835.94;;;4.37;58.09
40982;BME280;26708;50.304;19.028;2023-11-19T00:12:56;98839.50;;;4.41;58.20
40982;BME280;26708;50.304;19.028;2023-11-19T00:15:01;98846.47;;;4.43;57.99
40982;BME280;26708;50.304;19.028;2023-11-19T00:17:03;98678.34;;;3.52;58.09
40982;BME280;26708;50.304;19.028;2023-11-19T00:19:12;98773.94;;;4.11;57.47
40982;BME280;26708;50.304;19.028;2023-11-19T00:21:17;98821.53;;;4.47;57.58
40982;BME280;26708;50.304;19.028;2023-11-19T00:23:19;98714.44;;;3.80;57.31
40982;BME280;26708;50.304;19.028;2023-11-19T00:25:25;98734.47;;;3.87;57.31
40982;BME280;26708;50.304;19.028;2023-11-19T00:27:30;98805.75;;;4.39;57.51
40982;BME280;26708;50.304;19.028;2023-11-19T00:29:32;98806.88;;;4.49;57.39
40982;BME280;26708;50.304;19.028;2023-11-19T00:31:38;98776.25;;;4.33;57.37
40982;BME280;26708;50.304;19.028;2023-11-19T00:33:40;98814.69;;;4.50;57.13
40982;BME280;26708;50.304;19.028;2023-11-19T00:35:49;98805.88;;;4.44;56.93
40982;BME280;26708;50.304;19.028;2023-11-19T00:37:54;98785.81;;;4.35;57.09
40982;BME280;26708;50.304;19.028;2023-11-19T00:39:59;98712.19;;;3.92;56.90
40982;BME280;26708;50.304;19.028;2023-11-19T00:42:01;98783.97;;;4.31;57.06
40982;BME280;26708;50.304;19.028;2023-11-19T00:44:07;98796.44;;;4.46;56.99
40982;BME280;26708;50.304;19.028;2023-11-19T00:46:12;98718.91;;;3.86;56.84
40982;BME280;26708;50.304;19.028;2023-11-19T00:48:17;98809.31;;;4.43;56.97
40982;BME280;26708;50.304;19.028;2023-11-19T00:50:22;98800.69;;;4.42;56.80
40982;BME280;26708;50.304;19.028;2023-11-19T00:52:29;98774.28;;;4.24;56.85
40982;BME280;26708;50.304;19.028;2023-11-19T00:54:34;98796.75;;;4.24;56.82
40982;BME280;26708;50.304;19.028;2023-11-19T00:56:39;98807.50;;;4.40;57.03
40982;BME280;26708;50.304;19.028;2023-11-19T00:58:43;98743.38;;;3.97;56.76
40982;BME280;26708;50.304;19.028;2023-11-19T01:00:46;98704.19;;;3.83;56.93
40982;BME280;26708;50.304;19.028;2023-11-19T01:02:52;98776.75;;;4.18;56.79
40982;BME280;26708;50.304;19.028;2023-11-19T01:04:56;98699.47;;;3.69;56.67
40982;BME280;26708;50.304;19.028;2023-11-19T01:07:01;98809.25;;;4.40;56.48
40982;BME280;26708;50.304;19.028;2023-11-19T01:09:11;98712.03;;;3.86;56.48
40982;BME280;26708;50.304;19.028;2023-11-19T01:11:20;98799.72;;;4.39;56.26
40982;BME280;26708;50.304;19.028;2023-11-19T01:13:24;98797.94;;;4.36;56.41
40982;BME280;26708;50.304;19.028;2023-11-19T01:15:30;98763.75;;;4.17;56.25
40982;BME280;26708;50.304;19.028;2023-11-19T01:17:36;98794.38;;;4.33;56.38
40982;BME280;26708;50.304;19.028;2023-11-19T01:19:44;98755.97;;;4.17;56.46
40982;BME280;26708;50.304;19.028;2023-11-19T01:21:51;98691.88;;;3.75;56.73
40982;BME280;26708;50.304;19.028;2023-11-19T01:23:55;98782.16;;;4.27;56.31
40982;BME280;26708;50.304;19.028;2023-11-19T01:26:03;98781.25;;;4.25;56.58
40982;BME280;26708;50.304;19.028;2023-11-19T01:28:12;98776.88;;;4.24;56.56
40982;BME280;26708;50.304;19.028;2023-11-19T01:30:16;98750.66;;;4.11;56.35
40982;BME280;26708;50.304;19.028;2023-11-19T01:32:21;98770.69;;;4.18;56.23
40982;BME280;26708;50.304;19.028;2023-11-19T01:34:28;98761.09;;;4.14;56.37
40982;BME280;26708;50.304;19.028;2023-11-19T01:36:37;98752.38;;;4.12;56.73
40982;BME280;26708;50.304;19.028;2023-11-19T01:38:42;98761.66;;;4.04;56.65
40982;BME280;26708;50.304;19.028;2023-11-19T01:40:48;98663.97;;;3.63;56.64
40982;BME280;26708;50.304;19.028;2023-11-19T01:42:56;98722.69;;;3.98;56.54
40982;BME280;26708;50.304;19.028;2023-11-19T01:45:00;98693.88;;;3.52;56.86
40982;BME280;26708;50.304;19.028;2023-11-19T01:47:09;98706.06;;;3.89;56.58
40982;BME280;26708;50.304;19.028;2023-11-19T01:49:14;98738.59;;;4.11;56.53
40982;BME280;26708;50.304;19.028;2023-11-19T01:51:21;98735.03;;;4.08;56.53
40982;BME280;26708;50.304;19.028;2023-11-19T01:53:28;98701.91;;;3.95;56.50
40982;BME280;26708;50.304;19.028;2023-11-19T01:55:33;98718.47;;;4.01;56.62
40982;BME280;26708;50.304;19.028;2023-11-19T01:57:37;98715.97;;;4.04;56.61
40982;BME280;26708;50.304;19.028;2023-11-19T01:59:46;98708.94;;;3.99;56.76
40982;BME280;26708;50.304;19.028;2023-11-19T02:01:52;98707.97;;;3.96;56.74
40982;BME280;26708;50.304;19.028;2023-11-19T02:03:59;98665.88;;;3.70;56.96
40982;BME280;26708;50.304;19.028;2023-11-19T02:06:06;98565.28;;;3.14;57.12
40982;BME280;26708;50.304;19.028;2023-11-19T02:08:12;98694.94;;;3.92;57.06
40982;BME280;26708;50.304;19.028;2023-11-19T02:10:17;98665.41;;;3.85;57.18
40982;BME280;26708;50.304;19.028;2023-11-19T02:12:23;98676.84;;;3.94;56.98
40982;BME280;26708;50.304;19.028;2023-11-19T02:14:29;98666.47;;;3.92;57.10
40982;BME280;26708;50.304;19.028;2023-11-19T02:16:36;98658.59;;;3.88;57.23
40982;BME280;26708;50.304;19.028;2023-11-19T02:18:43;98654.19;;;3.86;57.38
40982;BME280;26708;50.304;19.028;2023-11-19T02:20:49;98595.19;;;3.37;57.60
40982;BME280;26708;50.304;19.028;2023-11-19T02:22:53;98553.50;;;3.25;57.43
40982;BME280;26708;50.304;19.028;2023-11-19T02:25:03;98592.59;;;3.37;57.61
40982;BME280;26708;50.304;19.028;2023-11-19T02:27:29;98568.47;;;3.06;57.61
40982;BME280;26708;50.304;19.028;2023-11-19T02:29:41;98490.97;;;2.75;57.92
40982;BME280;26708;50.304;19.028;2023-11-19T02:31:48;98626.56;;;3.51;58.25
40982;BME280;26708;50.304;19.028;2023-11-19T02:33:59;98631.41;;;3.39;58.38
40982;BME280;26708;50.304;19.028;2023-11-19T02:36:07;98579.44;;;2.97;58.63
40982;BME280;26708;50.304;19.028;2023-11-19T02:38:14;98536.44;;;2.68;58.94
40982;BME280;26708;50.304;19.028;2023-11-19T02:40:20;98616.03;;;3.12;59.36
40982;BME280;26708;50.304;19.028;2023-11-19T02:42:25;98598.91;;;2.85;59.54
40982;BME280;26708;50.304;19.028;2023-11-19T02:44:33;98603.63;;;2.99;59.67
40982;BME280;26708;50.304;19.028;2023-11-19T02:46:37;98602.63;;;2.94;59.92
40982;BME280;26708;50.304;19.028;2023-11-19T02:48:39;98592.88;;;2.86;60.09
40982;BME280;26708;50.304;19.028;2023-11-19T02:50:46;98580.66;;;2.79;60.00
40982;BME280;26708;50.304;19.028;2023-11-19T02:52:52;98498.19;;;2.26;60.53
40982;BME280;26708;50.304;19.028;2023-11-19T02:54:55;98540.22;;;2.50;60.80
40982;BME280;26708;50.304;19.028;2023-11-19T02:57:01;98495.19;;;2.12;60.51
40982;BME280;26708;50.304;19.028;2023-11-19T02:59:05;98562.81;;;2.57;60.81
40982;BME280;26708;50.304;19.028;2023-11-19T03:01:30;98571.84;;;2.71;60.99
40982;BME280;26708;50.304;19.028;2023-11-19T03:03:38;98461.66;;;2.12;60.58
40982;BME280;26708;50.304;19.028;2023-11-19T03:05:44;98468.06;;;2.26;60.60
40982;BME280;26708;50.304;19.028;2023-11-19T03:07:50;98574.69;;;2.81;60.49
40982;BME280;26708;50.304;19.028;2023-11-19T03:09:55;98573.81;;;2.81;60.31
40982;BME280;26708;50.304;19.028;2023-11-19T03:12:00;98521.88;;;2.42;60.36
40982;BME280;26708;50.304;19.028;2023-11-19T03:14:07;98578.94;;;2.79;60.45
40982;BME280;26708;50.304;19.028;2023-11-19T03:16:14;98578.94;;;2.79;60.29
40982;BME280;26708;50.304;19.028;2023-11-19T03:18:25;98577.31;;;2.83;60.56
40982;BME280;26708;50.304;19.028;2023-11-19T03:20:29;98574.78;;;2.84;60.31
40982;BME280;26708;50.304;19.028;2023-11-19T03:22:37;98578.28;;;2.86;60.48
40982;BME280;26708;50.304;19.028;2023-11-19T03:24:45;98571.44;;;2.88;60.47
40982;BME280;26708;50.304;19.028;2023-11-19T03:26:51;98553.88;;;2.75;60.40
40982;BME280;26708;50.304;19.028;2023-11-19T03:28:57;98557.72;;;2.91;60.18
40982;BME280;26708;50.304;19.028;2023-11-19T03:30:59;98532.78;;;2.60;60.43
40982;BME280;26708;50.304;19.028;2023-11-19T03:33:03;98557.00;;;2.96;60.27
40982;BME280;26708;50.304;19.028;2023-11-19T03:35:12;98551.09;;;3.00;60.24
40982;BME280;26708;50.304;19.028;2023-11-19T03:37:17;98540.84;;;3.03;60.18
40982;BME280;26708;50.304;19.028;2023-11-19T03:39:45;98534.81;;;3.03;59.95
40982;BME280;26708;50.304;19.028;2023-11-19T03:41:56;98542.50;;;3.01;59.79
40982;BME280;26708;50.304;19.028;2023-11-19T03:44:01;98539.94;;;3.01;60.05
40982;BME280;26708;50.304;19.028;2023-11-19T03:46:03;98534.81;;;3.03;60.11
40982;BME280;26708;50.304;19.028;2023-11-19T03:50:29;98480.69;;;2.76;59.75
40982;BME280;26708;50.304;19.028;2023-11-19T03:52:34;98416.78;;;2.38;59.67
40982;BME280;26708;50.304;19.028;2023-11-19T03:54:55;98496.19;;;2.76;60.13
40982;BME280;26708;50.304;19.028;2023-11-19T03:57:04;98494.19;;;2.66;60.53
40982;BME280;26708;50.304;19.028;2023-11-19T03:59:08;98380.78;;;1.81;61.04
40982;BME280;26708;50.304;19.028;2023-11-19T04:01:14;98498.63;;;2.70;61.08
40982;BME280;26708;50.304;19.028;2023-11-19T04:03:21;98480.66;;;2.75;61.19
40982;BME280;26708;50.304;19.028;2023-11-19T04:05:23;98380.06;;;2.17;61.17
40982;BME280;26708;50.304;19.028;2023-11-19T04:07:40;98425.38;;;2.37;61.04
40982;BME280;26708;50.304;19.028;2023-11-19T04:09:47;98470.44;;;2.79;61.15
40982;BME280;26708;50.304;19.028;2023-11-19T04:11:52;98436.50;;;2.66;60.94
40982;BME280;26708;50.304;19.028;2023-11-19T04:13:55;98460.16;;;2.81;60.92
40982;BME280;26708;50.304;19.028;2023-11-19T04:16:00;98474.03;;;2.84;61.10
40982;BME280;26708;50.304;19.028;2023-11-19T04:18:05;98483.56;;;2.87;61.35
40982;BME280;26708;50.304;19.028;2023-11-19T04:20:11;98449.53;;;2.70;61.32
40982;BME280;26708;50.304;19.028;2023-11-19T04:22:16;98350.53;;;2.06;61.38
40982;BME280;26708;50.304;19.028;2023-11-19T04:24:24;98344.06;;;2.20;60.93
40982;BME280;26708;50.304;19.028;2023-11-19T04:26:28;98466.69;;;3.01;61.04
40982;BME280;26708;50.304;19.028;2023-11-19T04:28:34;98434.31;;;2.81;60.86
40982;BME280;26708;50.304;19.028;2023-11-19T04:30:42;98451.38;;;3.08;60.71
40982;BME280;26708;50.304;19.028;2023-11-19T04:32:49;98429.56;;;2.97;60.67
40982;BME280;26708;50.304;19.028;2023-11-19T04:34:56;98449.69;;;3.10;60.42
40982;BME280;26708;50.304;19.028;2023-11-19T04:36:58;98445.41;;;3.11;60.48
40982;BME280;26708;50.304;19.028;2023-11-19T04:39:05;98421.00;;;3.00;60.42
40982;BME280;26708;50.304;19.028;2023-11-19T04:41:17;98322.13;;;2.37;60.30
40982;BME280;26708;50.304;19.028;2023-11-19T04:43:26;98441.88;;;3.07;60.61
40982;BME280;26708;50.304;19.028;2023-11-19T04:47:54;98435.94;;;3.10;60.41
40982;BME280;26708;50.304;19.028;2023-11-19T04:49:59;98430.59;;;3.05;60.18
40982;BME280;26708;50.304;19.028;2023-11-19T04:52:01;98402.16;;;2.70;60.46
40982;BME280;26708;50.304;19.028;2023-11-19T04:54:07;98440.03;;;3.03;60.51
40982;BME280;26708;50.304;19.028;2023-11-19T04:56:12;98432.38;;;3.06;60.34
40982;BME280;26708;50.304;19.028;2023-11-19T04:58:20;98427.22;;;3.06;60.51
40982;BME280;26708;50.304;19.028;2023-11-19T05:00:27;98436.72;;;3.09;60.42
40982;BME280;26708;50.304;19.028;2023-11-19T05:02:32;98433.34;;;3.10;60.23
40982;BME280;26708;50.304;19.028;2023-11-19T05:04:36;98430.66;;;3.07;60.19
40982;BME280;26708;50.304;19.028;2023-11-19T05:06:42;98380.91;;;2.80;60.41
40982;BME280;26708;50.304;19.028;2023-11-19T05:08:46;98428.84;;;3.03;60.37
40982;BME280;26708;50.304;19.028;2023-11-19T05:10:51;98424.53;;;3.02;60.37
40982;BME280;26708;50.304;19.028;2023-11-19T05:12:56;98410.66;;;2.98;60.43
40982;BME280;26708;50.304;19.028;2023-11-19T05:15:05;98408.06;;;2.98;60.55
40982;BME280;26708;50.304;19.028;2023-11-19T05:17:10;98378.28;;;2.78;60.13
40982;BME280;26708;50.304;19.028;2023-11-19T05:19:21;98300.03;;;2.16;60.21
40982;BME280;26708;50.304;19.028;2023-11-19T05:21:33;98317.78;;;2.36;60.71
40982;BME280;26708;50.304;19.028;2023-11-19T05:23:35;98371.22;;;2.40;60.86
40982;BME280;26708;50.304;19.028;2023-11-19T05:25:43;98380.19;;;2.53;61.14
40982;BME280;26708;50.304;19.028;2023-11-19T05:27:56;98386.09;;;2.49;61.55
40982;BME280;26708;50.304;19.028;2023-11-19T05:30:17;98343.50;;;2.32;61.68
40982;BME280;26708;50.304;19.028;2023-11-19T05:32:24;98342.72;;;2.36;61.70
40982;BME280;26708;50.304;19.028;2023-11-19T05:34:31;98365.41;;;2.47;61.90
40982;BME280;26708;50.304;19.028;2023-11-19T05:36:35;98174.16;;;1.36;61.86
40982;BME280;26708;50.304;19.028;2023-11-19T05:38:42;98238.72;;;1.73;62.12
40982;BME280;26708;50.304;19.028;2023-11-19T05:40:50;98202.47;;;1.67;61.74
40982;BME280;26708;50.304;19.028;2023-11-19T05:43:01;98231.41;;;1.57;62.02
40982;BME280;26708;50.304;19.028;2023-11-19T05:45:12;98316.72;;;2.28;62.56
40982;BME280;26708;50.304;19.028;2023-11-19T05:47:20;98328.03;;;2.33;62.35
40982;BME280;26708;50.304;19.028;2023-11-19T05:49:24;98356.97;;;2.53;62.34
40982;BME280;26708;50.304;19.028;2023-11-19T05:51:36;98307.34;;;2.32;62.43
40982;BME280;26708;50.304;19.028;2023-11-19T05:53:41;98197.94;;;1.59;62.33
40982;BME280;26708;50.304;19.028;2023-11-19T05:55:54;98278.69;;;2.21;62.15
40982;BME280;26708;50.304;19.028;2023-11-19T05:57:59;98359.31;;;2.78;62.23
40982;BME280;26708;50.304;19.028;2023-11-19T06:00:09;98363.69;;;2.80;62.08
40982;BME280;26708;50.304;19.028;2023-11-19T06:02:16;98285.59;;;2.22;61.93
40982;BME280;26708;50.304;19.028;2023-11-19T06:04:27;98364.72;;;2.88;61.90
40982;BME280;26708;50.304;19.028;2023-11-19T06:06:35;98367.41;;;2.91;61.91
40982;BME280;26708;50.304;19.028;2023-11-19T06:08:42;98370.06;;;2.94;61.94
40982;BME280;26708;50.304;19.028;2023-11-19T06:10:48;98353.66;;;2.92;62.05
40982;BME280;26708;50.304;19.028;2023-11-19T06:13:00;98321.91;;;2.62;62.05
40982;BME280;26708;50.304;19.028;2023-11-19T06:15:09;98285.97;;;2.37;61.82
40982;BME280;26708;50.304;19.028;2023-11-19T06:17:15;98380.53;;;3.00;62.08
40982;BME280;26708;50.304;19.028;2023-11-19T06:19:21;98196.31;;;1.95;62.01
40982;BME280;26708;50.304;19.028;2023-11-19T06:21:30;98360.78;;;3.02;62.21
40982;BME280;26708;50.304;19.028;2023-11-19T06:23:37;98355.66;;;3.04;62.20
40982;BME280;26708;50.304;19.028;2023-11-19T06:25:45;98357.44;;;3.08;62.41
40982;BME280;26708;50.304;19.028;2023-11-19T06:27:51;98349.78;;;3.11;62.30
40982;BME280;26708;50.304;19.028;2023-11-19T06:29:57;98349.75;;;3.09;62.03
40982;BME280;26708;50.304;19.028;2023-11-19T06:32:05;98338.50;;;3.07;62.27
40982;BME280;26708;50.304;19.028;2023-11-19T06:34:11;98309.78;;;2.95;62.70
40982;BME280;26708;50.304;19.028;2023-11-19T06:36:35;98299.50;;;2.97;62.96
40982;BME280;26708;50.304;19.028;2023-11-19T06:38:40;98315.31;;;3.10;62.66
40982;BME280;26708;50.304;19.028;2023-11-19T06:40:46;98309.34;;;3.13;63.01
40982;BME280;26708;50.304;19.028;2023-11-19T06:42:51;98302.41;;;3.12;62.90
40982;BME280;26708;50.304;19.028;2023-11-19T06:44:56;98254.47;;;2.87;62.89
40982;BME280;26708;50.304;19.028;2023-11-19T06:47:01;98311.31;;;3.24;63.12
40982;BME280;26708;50.304;19.028;2023-11-19T06:49:11;98301.00;;;3.26;62.91
40982;BME280;26708;50.304;19.028;2023-11-19T06:51:15;98303.50;;;3.21;62.86
40982;BME280;26708;50.304;19.028;2023-11-19T06:53:17;98267.69;;;3.01;63.10
40982;BME280;26708;50.304;19.028;2023-11-19T06:55:26;98294.56;;;3.07;63.14
40982;BME280;26708;50.304;19.028;2023-11-19T06:57:31;98291.94;;;3.06;63.46
40982;BME280;26708;50.304;19.028;2023-11-19T06:59:36;98259.69;;;2.89;63.66
40982;BME280;26708;50.304;19.028;2023-11-19T07:01:42;98287.66;;;3.08;63.91
40982;BME280;26708;50.304;19.028;2023-11-19T07:03:52;98100.41;;;1.77;63.89
40982;BME280;26708;50.304;19.028;2023-11-19T07:06:05;98124.28;;;2.04;63.53
40982;BME280;26708;50.304;19.028;2023-11-19T07:08:14;98027.81;;;1.59;63.58
40982;BME280;26708;50.304;19.028;2023-11-19T07:10:22;98147.44;;;2.38;63.43
40982;BME280;26708;50.304;19.028;2023-11-19T07:12:50;98159.97;;;2.58;63.70
40982;BME280;26708;50.304;19.028;2023-11-19T07:15:03;98243.59;;;3.00;63.29
40982;BME280;26708;50.304;19.028;2023-11-19T07:17:08;98282.31;;;3.39;63.37
40982;BME280;26708;50.304;19.028;2023-11-19T07:19:15;98066.91;;;2.14;63.17
40982;BME280;26708;50.304;19.028;2023-11-19T07:21:21;98198.63;;;2.92;63.17
40982;BME280;26708;50.304;19.028;2023-11-19T07:23:26;98290.16;;;3.43;63.24
40982;BME280;26708;50.304;19.028;2023-11-19T07:25:32;98181.38;;;2.91;63.17
40982;BME280;26708;50.304;19.028;2023-11-19T07:27:39;98071.41;;;2.24;62.86
40982;BME280;26708;50.304;19.028;2023-11-19T07:29:44;98093.94;;;2.31;63.04
40982;BME280;26708;50.304;19.028;2023-11-19T07:31:46;98052.31;;;2.16;62.85
40982;BME280;26708;50.304;19.028;2023-11-19T07:33:52;98280.69;;;3.44;63.06
40982;BME280;26708;50.304;19.028;2023-11-19T07:35:56;98273.84;;;3.44;63.17
40982;BME280;26708;50.304;19.028;2023-11-19T07:38:01;98215.47;;;3.15;63.27
40982;BME280;26708;50.304;19.028;2023-11-19T07:40:08;98227.91;;;3.34;63.39
40982;BME280;26708;50.304;19.028;2023-11-19T07:42:14;98176.53;;;3.06;63.02
40982;BME280;26708;50.304;19.028;2023-11-19T07:44:20;98158.22;;;2.97;62.72
40982;BME280;26708;50.304;19.028;2023-11-19T07:46:26;98118.34;;;2.85;62.81
40982;BME280;26708;50.304;19.028;2023-11-19T07:48:31;98163.69;;;3.12;62.69
40982;BME280;26708;50.304;19.028;2023-11-19T07:50:33;98075.16;;;2.78;62.40
40982;BME280;26708;50.304;19.028;2023-11-19T07:52:38;98231.44;;;3.81;62.53
40982;BME280;26708;50.304;19.028;2023-11-19T07:54:45;98213.19;;;3.75;62.33
40982;BME280;26708;50.304;19.028;2023-11-19T07:56:47;98129.44;;;3.21;62.44
40982;BME280;26708;50.304;19.028;2023-11-19T07:58:54;98119.59;;;3.03;62.08
40982;BME280;26708;50.304;19.028;2023-11-19T08:00:58;98221.16;;;3.85;61.93
40982;BME280;26708;50.304;19.028;2023-11-19T08:03:03;98225.50;;;3.86;62.14
40982;BME280;26708;50.304;19.028;2023-11-19T08:05:09;98185.69;;;3.80;61.79
40982;BME280;26708;50.304;19.028;2023-11-19T08:07:11;98125.44;;;3.38;61.62
40982;BME280;26708;50.304;19.028;2023-11-19T08:09:16;98201.34;;;3.87;61.67
40982;BME280;26708;50.304;19.028;2023-11-19T08:11:24;98080.28;;;3.19;61.79
40982;BME280;26708;50.304;19.028;2023-11-19T08:13:28;98067.09;;;3.06;61.64
40982;BME280;26708;50.304;19.028;2023-11-19T08:15:33;98193.75;;;3.96;61.30
40982;BME280;26708;50.304;19.028;2023-11-19T08:17:40;98194.59;;;3.95;61.08
40982;BME280;26708;50.304;19.028;2023-11-19T08:19:44;98171.91;;;3.82;61.20
40982;BME280;26708;50.304;19.028;2023-11-19T08:21:49;98077.97;;;3.34;61.56
40982;BME280;26708;50.304;19.028;2023-11-19T08:23:54;98141.72;;;3.80;61.55
40982;BME280;26708;50.304;19.028;2023-11-19T08:25:59;98157.50;;;3.96;61.42
40982;BME280;26708;50.304;19.028;2023-11-19T08:28:09;98188.97;;;4.18;60.46
40982;BME280;26708;50.304;19.028;2023-11-19T08:30:15;98090.38;;;3.55;60.51
40982;BME280;26708;50.304;19.028;2023-11-19T08:32:19;98196.72;;;4.20;60.42
40982;BME280;26708;50.304;19.028;2023-11-19T08:34:25;98142.56;;;3.80;60.54
40982;BME280;26708;50.304;19.028;2023-11-19T08:36:36;98175.13;;;4.18;60.22
40982;BME280;26708;50.304;19.028;2023-11-19T08:38:40;98061.69;;;3.40;60.12
40982;BME280;26708;50.304;19.028;2023-11-19T08:40:45;98037.31;;;3.26;60.19
40982;BME280;26708;50.304;19.028;2023-11-19T08:42:50;98177.63;;;4.12;59.85
40982;BME280;26708;50.304;19.028;2023-11-19T08:44:58;98113.06;;;3.69;60.21
40982;BME280;26708;50.304;19.028;2023-11-19T08:47:06;98084.31;;;3.53;60.01
40982;BME280;26708;50.304;19.028;2023-11-19T08:49:11;98089.66;;;3.62;59.92
40982;BME280;26708;50.304;19.028;2023-11-19T08:51:16;98135.94;;;3.96;60.17
40982;BME280;26708;50.304;19.028;2023-11-19T08:53:20;98069.44;;;3.38;60.26
40982;BME280;26708;50.304;19.028;2023-11-19T08:55:26;98058.47;;;3.53;59.85
40982;BME280;26708;50.304;19.028;2023-11-19T08:57:33;98127.34;;;3.98;59.98
40982;BME280;26708;50.304;19.028;2023-11-19T08:59:37;97984.53;;;3.12;59.51
40982;BME280;26708;50.304;19.028;2023-11-19T09:01:45;98149.28;;;4.19;59.66
40982;BME280;26708;50.304;19.028;2023-11-19T09:03:50;98129.34;;;4.14;59.50
40982;BME280;26708;50.304;19.028;2023-11-19T09:05:57;98093.69;;;3.97;59.84
40982;BME280;26708;50.304;19.028;2023-11-19T09:08:06;97998.88;;;3.47;59.61
40982;BME280;26708;50.304;19.028;2023-11-19T09:10:10;97975.34;;;3.32;59.99
40982;BME280;26708;50.304;19.028;2023-11-19T09:12:16;98022.34;;;3.59;60.05
40982;BME280;26708;50.304;19.028;2023-11-19T09:14:21;98018.19;;;3.67;59.92
40982;BME280;26708;50.304;19.028;2023-11-19T09:16:28;98107.91;;;4.24;60.43
40982;BME280;26708;50.304;19.028;2023-11-19T09:18:38;98013.78;;;3.63;60.12
40982;BME280;26708;50.304;19.028;2023-11-19T09:20:44;98114.09;;;4.35;60.15
40982;BME280;26708;50.304;19.028;2023-11-19T09:22:46;98021.91;;;3.85;60.08
40982;BME280;26708;50.304;19.028;2023-11-19T09:24:51;98114.19;;;4.41;60.05
40982;BME280;26708;50.304;19.028;2023-11-19T09:26:56;98118.59;;;4.46;59.83
40982;BME280;26708;50.304;19.028;2023-11-19T09:29:01;98106.59;;;4.53;59.75
40982;BME280;26708;50.304;19.028;2023-11-19T09:31:13;98104.97;;;4.59;59.72
40982;BME280;26708;50.304;19.028;2023-11-19T09:33:21;98098.94;;;4.62;59.45
40982;BME280;26708;50.304;19.028;2023-11-19T09:35:30;98053.66;;;4.33;59.38
40982;BME280;26708;50.304;19.028;2023-11-19T09:37:34;98040.84;;;4.43;59.42
40982;BME280;26708;50.304;19.028;2023-11-19T09:39:40;98088.66;;;4.69;59.38
40982;BME280;26708;50.304;19.028;2023-11-19T09:41:44;98060.94;;;4.61;58.99
40982;BME280;26708;50.304;19.028;2023-11-19T09:43:49;98042.75;;;4.56;58.91
40982;BME280;26708;50.304;19.028;2023-11-19T09:45:59;98060.16;;;4.69;58.65
40982;BME280;26708;50.304;19.028;2023-11-19T09:48:12;98053.28;;;4.71;59.08
40982;BME280;26708;50.304;19.028;2023-11-19T09:50:17;98032.47;;;4.64;59.06
40982;BME280;26708;50.304;19.028;2023-11-19T09:52:26;97999.50;;;4.49;58.96
40982;BME280;26708;50.304;19.028;2023-11-19T09:54:32;98044.78;;;4.81;58.86
40982;BME280;26708;50.304;19.028;2023-11-19T09:56:38;98036.13;;;4.81;58.40
40982;BME280;26708;50.304;19.028;2023-11-19T09:58:45;97969.19;;;4.44;59.00
40982;BME280;26708;50.304;19.028;2023-11-19T10:00:50;98027.50;;;4.83;58.70
40982;BME280;26708;50.304;19.028;2023-11-19T10:02:57;98018.03;;;4.87;58.84
40982;BME280;26708;50.304;19.028;2023-11-19T10:05:06;98018.97;;;4.90;58.60
40982;BME280;26708;50.304;19.028;2023-11-19T10:07:09;98024.22;;;4.95;58.23
40982;BME280;26708;50.304;19.028;2023-11-19T10:09:16;98009.50;;;4.92;57.71
40982;BME280;26708;50.304;19.028;2023-11-19T10:11:21;98003.47;;;4.95;58.03
40982;BME280;26708;50.304;19.028;2023-11-19T10:13:26;98003.50;;;4.99;57.82
40982;BME280;26708;50.304;19.028;2023-11-19T10:15:37;97995.81;;;5.05;57.62
40982;BME280;26708;50.304;19.028;2023-11-19T10:17:42;97985.47;;;5.07;57.36
40982;BME280;26708;50.304;19.028;2023-11-19T10:19:47;97939.34;;;4.79;57.11
40982;BME280;26708;50.304;19.028;2023-11-19T10:21:52;97955.06;;;4.94;57.17
40982;BME280;26708;50.304;19.028;2023-11-19T10:23:57;97956.84;;;4.99;57.14
40982;BME280;26708;50.304;19.028;2023-11-19T10:26:06;97986.44;;;5.19;56.43
40982;BME280;26708;50.304;19.028;2023-11-19T10:28:10;97972.56;;;5.17;56.61
40982;BME280;26708;50.304;19.028;2023-11-19T10:30:21;97929.19;;;4.98;56.91
40982;BME280;26708;50.304;19.028;2023-11-19T10:32:27;97963.94;;;5.20;56.82
40982;BME280;26708;50.304;19.028;2023-11-19T10:34:31;97967.41;;;5.19;56.45
40982;BME280;26708;50.304;19.028;2023-11-19T10:36:39;97962.22;;;5.19;56.61
40982;BME280;26708;50.304;19.028;2023-11-19T10:38:53;97969.13;;;5.20;56.88
40982;BME280;26708;50.304;19.028;2023-11-19T10:40:59;97952.75;;;5.25;57.00
40982;BME280;26708;50.304;19.028;2023-11-19T10:43:09;97942.38;;;5.25;56.63
40982;BME280;26708;50.304;19.028;2023-11-19T10:45:22;97899.88;;;5.08;56.38
40982;BME280;26708;50.304;19.028;2023-11-19T10:47:29;97869.50;;;4.92;56.00
40982;BME280;26708;50.304;19.028;2023-11-19T10:49:37;97919.03;;;5.25;56.22
40982;BME280;26708;50.304;19.028;2023-11-19T10:51:45;97906.03;;;5.21;55.90
40982;BME280;26708;50.304;19.028;2023-11-19T10:53:54;97846.97;;;4.87;55.95
40982;BME280;26708;50.304;19.028;2023-11-19T10:56:11;97859.03;;;4.83;56.15
40982;BME280;26708;50.304;19.028;2023-11-19T10:58:20;97900.00;;;5.20;56.21
40982;BME280;26708;50.304;19.028;2023-11-19T11:00:29;97910.34;;;5.19;56.13
40982;BME280;26708;50.304;19.028;2023-11-19T11:02:41;97917.22;;;5.15;56.41
40982;BME280;26708;50.304;19.028;2023-11-19T11:04:52;97908.59;;;5.15;57.17
40982;BME280;26708;50.304;19.028;2023-11-19T11:06:58;97912.94;;;5.19;57.78
40982;BME280;26708;50.304;19.028;2023-11-19T11:09:07;97857.44;;;4.96;57.86
40982;BME280;26708;50.304;19.028;2023-11-19T11:11:16;97813.97;;;4.68;58.13
40982;BME280;26708;50.304;19.028;2023-11-19T11:13:26;97866.06;;;4.93;58.47
40982;BME280;26708;50.304;19.028;2023-11-19T11:15:32;97886.03;;;5.05;59.10